Time;durP1;ratioP1;P1;durP2;ratioP2;P2;SDS_P1;SDS_P2;PMS_P1;PMS_P2;Temp;Humidity;BMP_temperature;BMP_pressure;BME280_temperature;BME280_humidity;BME280_pressure;Samples;Min_cycle;Max_cycle;Signal;HPM_P1;HPM_P2
2022/10/17 00:00:15;;;;;;;38.80;27.95;;;13.40;99.90;;;;;;2603826;54;20022;31
2022/10/17 00:02:49;;;;;;;35.90;27.95;;;13.40;99.90;;;;;;2603734;54;20925;31
2022/10/17 00:05:23;;;;;;;41.75;29.60;;;13.40;99.90;;;;;;2603566;54;20878;31
2022/10/17 00:07:57;;;;;;;36.80;28.25;;;13.30;99.90;;;;;;2622249;46;20895;31
2022/10/17 00:10:31;;;;;;;43.22;29.42;;;13.50;99.90;;;;;;2603445;54;20031;31
2022/10/17 00:13:08;;;;;;;40.80;28.65;;;13.50;99.90;;;;;;2603560;54;20851;31
2022/10/17 00:15:45;;;;;;;38.10;27.90;;;13.50;99.90;;;;;;2622158;46;20034;31
2022/10/17 00:20:49;;;;;;;35.40;28.60;;;13.20;99.90;;;;;;2603852;54;20841;31
2022/10/17 00:23:26;;;;;;;30.73;23.38;;;13.50;99.90;;;;;;2603510;54;20034;31
2022/10/17 00:26:01;;;;;;;37.08;27.17;;;13.40;99.90;;;;;;2603569;54;20019;31
2022/10/17 00:28:38;;;;;;;37.73;26.03;;;13.40;99.90;;;;;;2603670;54;20022;31
2022/10/17 00:31:13;;;;;;;42.15;29.10;;;13.20;99.90;;;;;;2621837;46;20278;31
2022/10/17 00:33:48;;;;;;;32.30;25.60;;;13.40;99.90;;;;;;2603663;54;20038;31
2022/10/17 00:36:23;;;;;;;39.42;27.58;;;13.30;99.90;;;;;;2622441;46;20037;31
2022/10/17 00:38:59;;;;;;;29.95;23.27;;;13.20;99.90;;;;;;2603424;54;20169;31
2022/10/17 00:41:34;;;;;;;28.05;21.10;;;13.10;99.90;;;;;;2603742;54;19946;31
2022/10/17 00:44:39;;;;;;;36.67;26.15;;;13.20;99.90;;;;;;2702192;39;21097;31
2022/10/17 00:47:17;;;;;;;33.95;24.73;;;13.20;99.90;;;;;;2603528;54;20038;31
2022/10/17 00:49:52;;;;;;;29.60;22.25;;;13.30;99.90;;;;;;2603472;54;20033;31
2022/10/17 00:52:27;;;;;;;41.47;28.85;;;13.20;99.90;;;;;;2603342;54;20027;31
2022/10/17 00:55:04;;;;;;;33.80;25.42;;;13.10;99.90;;;;;;2603472;54;20023;31
2022/10/17 00:57:38;;;;;;;38.05;26.52;;;13.10;99.90;;;;;;2603506;54;20126;31
2022/10/17 01:00:14;;;;;;;27.65;21.30;;;13.10;99.90;;;;;;2603316;54;20025;31
2022/10/17 01:02:51;;;;;;;33.53;24.67;;;13.10;99.90;;;;;;2622117;46;20027;31
2022/10/17 01:05:28;;;;;;;38.55;28.48;;;13.10;99.90;;;;;;2621927;46;20026;31
2022/10/17 01:08:02;;;;;;;36.50;26.20;;;13.20;99.90;;;;;;2603661;54;20026;31
2022/10/17 01:10:44;;;;;;;37.33;27.25;;;13.00;99.90;;;;;;2603356;54;20045;31
2022/10/17 01:13:23;;;;;;;44.15;31.13;;;13.10;99.90;;;;;;2603376;54;20921;31
2022/10/17 01:16:01;;;;;;;42.03;28.08;;;13.10;99.90;;;;;;2603524;54;20846;31
2022/10/17 01:18:46;;;;;;;35.92;26.75;;;13.20;99.90;;;;;;2603300;54;20081;31
2022/10/17 01:24:20;;;;;;;35.50;26.65;;;13.00;99.90;;;;;;2603351;54;20030;31
2022/10/17 01:27:15;;;;;;;41.03;30.40;;;13.00;99.90;;;;;;2603431;54;20026;31
2022/10/17 01:29:59;;;;;;;34.90;26.10;;;12.90;99.90;;;;;;2622105;46;20033;31
2022/10/17 01:32:37;;;;;;;28.63;21.93;;;13.00;99.90;;;;;;2603445;54;20051;31
2022/10/17 01:35:13;;;;;;;42.00;27.57;;;12.90;99.90;;;;;;2603459;54;20031;31
2022/10/17 01:37:50;;;;;;;34.25;26.38;;;12.90;99.90;;;;;;2603096;54;20074;31
2022/10/17 01:40:26;;;;;;;33.65;25.27;;;12.90;99.90;;;;;;2603268;54;20038;31
2022/10/17 01:43:06;;;;;;;32.80;24.55;;;12.90;99.90;;;;;;2603534;54;20832;31
2022/10/17 01:45:42;;;;;;;37.35;27.60;;;12.90;99.90;;;;;;2603180;54;20123;31
2022/10/17 01:48:20;;;;;;;39.92;29.48;;;13.10;99.90;;;;;;2622072;46;20030;31
2022/10/17 01:50:55;;;;;;;41.13;30.40;;;13.00;99.90;;;;;;2621383;46;20952;31
2022/10/17 01:53:31;;;;;;;44.95;31.05;;;12.80;99.90;;;;;;2603299;54;20889;31
2022/10/17 01:56:06;;;;;;;44.60;31.85;;;12.80;99.90;;;;;;2621849;46;20026;31
2022/10/17 01:58:42;;;;;;;42.03;29.20;;;12.70;99.90;;;;;;2621638;46;20828;31
2022/10/17 02:01:17;;;;;;;44.00;32.00;;;13.00;99.90;;;;;;2603026;54;20022;31
2022/10/17 02:03:54;;;;;;;39.60;30.00;;;12.70;99.90;;;;;;2603380;54;20046;31
2022/10/17 02:06:28;;;;;;;43.13;30.70;;;12.80;99.90;;;;;;2603493;54;20889;31
2022/10/17 02:09:02;;;;;;;36.80;26.63;;;12.60;99.90;;;;;;2603217;54;20860;31
2022/10/17 02:11:36;;;;;;;36.30;26.50;;;12.90;99.90;;;;;;2602738;54;20105;31
2022/10/17 02:14:20;;;;;;;44.50;30.60;;;12.50;99.90;;;;;;2603223;54;20022;31
2022/10/17 02:16:54;;;;;;;50.33;31.23;;;12.50;99.90;;;;;;2603246;54;20026;31
2022/10/17 02:19:36;;;;;;;32.60;24.92;;;12.40;99.90;;;;;;2621590;46;20030;31
2022/10/17 02:22:18;;;;;;;37.27;27.30;;;12.40;99.90;;;;;;2621880;46;20022;31
2022/10/17 02:24:54;;;;;;;35.25;24.88;;;12.40;99.90;;;;;;2603401;54;20035;31
2022/10/17 02:27:35;;;;;;;38.08;27.45;;;12.40;99.90;;;;;;2603351;54;20030;31
2022/10/17 02:30:12;;;;;;;33.60;24.55;;;12.40;99.90;;;;;;2603120;54;20034;31
2022/10/17 02:32:49;;;;;;;34.13;26.83;;;12.40;99.90;;;;;;2603379;54;20029;31
2022/10/17 02:35:30;;;;;;;34.80;24.80;;;12.40;99.90;;;;;;2603126;54;20026;31
2022/10/17 02:38:05;;;;;;;29.85;23.25;;;12.40;99.90;;;;;;2603341;54;20033;31
2022/10/17 02:40:39;;;;;;;38.47;29.02;;;12.40;99.90;;;;;;2603253;54;20053;31
2022/10/17 02:43:13;;;;;;;35.58;25.85;;;12.40;99.90;;;;;;2603228;54;20029;31
2022/10/17 02:45:47;;;;;;;38.20;28.00;;;12.40;99.90;;;;;;2603320;54;19934;31
2022/10/17 02:48:24;;;;;;;49.43;32.37;;;12.60;99.90;;;;;;2603381;54;20026;31
2022/10/17 02:51:05;;;;;;;44.90;30.75;;;12.60;99.90;;;;;;2621304;46;20859;31
2022/10/17 02:53:44;;;;;;;43.50;31.23;;;12.60;99.90;;;;;;2602992;54;20038;31
2022/10/17 02:56:21;;;;;;;37.70;24.20;;;12.30;99.90;;;;;;2603142;54;20805;31
2022/10/17 02:58:57;;;;;;;36.25;25.95;;;12.30;99.90;;;;;;2603272;54;20027;31
2022/10/17 03:01:31;;;;;;;33.28;25.83;;;12.30;99.90;;;;;;2603020;54;20946;31
2022/10/17 03:04:09;;;;;;;40.88;28.33;;;12.30;99.90;;;;;;2602846;54;20912;31
2022/10/17 03:06:46;;;;;;;37.90;28.15;;;12.30;99.90;;;;;;2603128;54;20817;31
2022/10/17 03:09:20;;;;;;;38.88;29.23;;;12.30;99.90;;;;;;2621820;47;20916;31
2022/10/17 03:11:54;;;;;;;45.28;34.08;;;12.30;99.90;;;;;;2602891;54;20877;31
2022/10/17 03:14:28;;;;;;;45.53;29.45;;;12.50;99.90;;;;;;2602830;54;20921;31
2022/10/17 03:17:02;;;;;;;45.55;31.58;;;12.30;99.90;;;;;;2603201;54;20022;31
2022/10/17 03:19:37;;;;;;;47.72;32.80;;;12.20;99.90;;;;;;2602861;54;20727;31
2022/10/17 03:22:15;;;;;;;50.70;34.72;;;12.20;99.90;;;;;;2621526;47;20072;31
2022/10/17 03:24:51;;;;;;;46.50;32.95;;;12.10;99.90;;;;;;2604011;54;20885;31
2022/10/17 03:27:25;;;;;;;46.65;32.85;;;12.30;99.90;;;;;;2603679;54;20854;31
2022/10/17 03:30:00;;;;;;;42.47;31.60;;;12.30;99.90;;;;;;2603865;54;20048;31
2022/10/17 03:32:36;;;;;;;45.40;31.27;;;12.10;99.90;;;;;;2622443;46;20886;31
2022/10/17 03:35:11;;;;;;;46.53;30.42;;;12.20;99.90;;;;;;2603795;54;20250;31
2022/10/17 03:37:54;;;;;;;48.47;32.58;;;12.10;99.90;;;;;;2603702;54;20787;31
2022/10/17 03:40:30;;;;;;;48.15;33.30;;;12.40;99.90;;;;;;2603817;54;20833;31
2022/10/17 03:43:04;;;;;;;44.70;31.43;;;12.10;99.90;;;;;;2603707;54;20033;31
2022/10/17 03:45:38;;;;;;;47.80;33.60;;;12.10;99.90;;;;;;2603746;54;20081;31
2022/10/17 03:48:13;;;;;;;43.97;32.17;;;12.00;99.90;;;;;;2603791;54;20042;31
2022/10/17 03:50:47;;;;;;;51.25;35.70;;;12.10;99.90;;;;;;2622236;46;20833;31
2022/10/17 03:53:25;;;;;;;46.60;32.38;;;12.10;99.90;;;;;;2603742;54;20029;31
2022/10/17 03:56:00;;;;;;;45.05;31.55;;;12.00;99.90;;;;;;2603568;54;20862;31
2022/10/17 03:58:34;;;;;;;59.03;41.03;;;12.00;99.90;;;;;;2622114;46;20034;31
2022/10/17 04:01:09;;;;;;;53.28;37.70;;;12.00;99.90;;;;;;2603700;54;20065;31
2022/10/17 04:03:44;;;;;;;49.50;32.05;;;12.00;99.90;;;;;;2603882;54;20888;31
2022/10/17 04:06:19;;;;;;;50.63;33.50;;;12.10;99.90;;;;;;2603677;54;20022;31
2022/10/17 04:08:57;;;;;;;45.70;33.15;;;12.00;99.90;;;;;;2603700;54;20022;31
2022/10/17 04:11:37;;;;;;;50.25;34.80;;;12.00;99.90;;;;;;2603614;54;20022;31
2022/10/17 04:14:14;;;;;;;46.60;33.35;;;11.90;99.90;;;;;;2603623;54;20052;31
2022/10/17 04:16:49;;;;;;;46.80;33.70;;;11.90;99.90;;;;;;2603650;54;20919;31
2022/10/17 04:19:27;;;;;;;48.20;33.92;;;11.90;99.90;;;;;;2622341;46;20132;31
2022/10/17 04:22:01;;;;;;;48.10;33.80;;;11.90;99.90;;;;;;2622012;46;20030;31
2022/10/17 04:24:43;;;;;;;50.30;34.00;;;11.90;99.90;;;;;;2622240;46;20023;31
2022/10/17 04:27:32;;;;;;;50.33;34.28;;;12.00;99.90;;;;;;2603543;54;20148;31
2022/10/17 04:30:08;;;;;;;48.10;32.67;;;11.80;99.90;;;;;;2622320;46;20023;31
2022/10/17 04:32:43;;;;;;;51.20;35.08;;;11.80;99.90;;;;;;2603336;54;20031;31
2022/10/17 04:35:23;;;;;;;49.35;33.50;;;11.80;99.90;;;;;;2603480;54;20022;31
2022/10/17 04:38:04;;;;;;;48.38;32.92;;;11.80;99.90;;;;;;2603622;54;20042;31
2022/10/17 04:40:42;;;;;;;48.17;33.15;;;11.70;99.90;;;;;;2603808;54;20893;31
2022/10/17 04:43:18;;;;;;;58.25;36.55;;;11.80;99.90;;;;;;2603465;54;20054;31
2022/10/17 04:45:52;;;;;;;48.95;31.92;;;11.80;99.90;;;;;;2603342;54;20945;31
2022/10/17 04:48:27;;;;;;;62.00;39.00;;;11.70;99.90;;;;;;2603711;54;20026;31
2022/10/17 04:51:03;;;;;;;56.20;36.53;;;11.80;99.90;;;;;;2603397;54;20150;31
2022/10/17 04:53:44;;;;;;;48.80;33.63;;;11.70;99.90;;;;;;2603550;54;20089;31
2022/10/17 04:56:22;;;;;;;54.10;36.45;;;11.70;99.90;;;;;;2603595;54;20026;31
2022/10/17 04:58:56;;;;;;;47.20;32.40;;;11.80;99.90;;;;;;2622095;46;20034;31
2022/10/17 05:01:32;;;;;;;45.95;33.30;;;11.70;99.90;;;;;;2603203;54;20038;31
2022/10/17 05:04:07;;;;;;;48.67;35.22;;;11.90;99.90;;;;;;2603664;54;20860;31
2022/10/17 05:06:41;;;;;;;53.85;35.60;;;11.70;99.90;;;;;;2603369;54;20056;31
2022/10/17 05:09:33;;;;;;;57.17;37.63;;;11.70;99.90;;;;;;2603557;54;20845;31
2022/10/17 05:12:11;;;;;;;51.00;33.45;;;12.00;99.90;;;;;;2603285;54;20901;31
2022/10/17 05:14:48;;;;;;;45.65;32.70;;;11.70;99.90;;;;;;2603479;54;20023;31
2022/10/17 05:17:24;;;;;;;44.70;32.53;;;11.70;99.90;;;;;;2603415;54;20026;31
2022/10/17 05:19:59;;;;;;;59.33;36.42;;;11.70;99.90;;;;;;2603427;54;20026;31
2022/10/17 05:22:38;;;;;;;48.30;33.08;;;11.70;99.90;;;;;;2603413;54;20026;31
2022/10/17 05:25:17;;;;;;;51.88;34.50;;;12.00;99.90;;;;;;2603340;54;20099;31
2022/10/17 05:27:57;;;;;;;55.38;35.15;;;11.70;99.90;;;;;;2603654;54;20023;31
2022/10/17 05:30:33;;;;;;;50.42;34.50;;;11.70;99.90;;;;;;2603522;54;20793;31
2022/10/17 05:33:14;;;;;;;45.97;32.20;;;11.70;99.90;;;;;;2603156;54;20030;31
2022/10/17 05:35:49;;;;;;;49.78;33.17;;;12.10;99.90;;;;;;2603367;54;20038;31
2022/10/17 05:38:23;;;;;;;37.15;27.75;;;11.80;99.90;;;;;;2603587;54;20089;31
2022/10/17 05:41:00;;;;;;;38.33;29.17;;;11.80;99.90;;;;;;2621759;46;20932;31
2022/10/17 05:43:37;;;;;;;37.42;29.88;;;11.90;99.90;;;;;;2603295;54;20033;31
2022/10/17 05:46:12;;;;;;;44.25;33.50;;;12.40;99.90;;;;;;2603128;54;20105;31
2022/10/17 05:48:47;;;;;;;65.70;41.05;;;12.50;99.90;;;;;;2603353;54;20030;31
2022/10/17 05:51:22;;;;;;;109.15;64.60;;;12.60;99.90;;;;;;2603205;54;20051;31
2022/10/17 05:53:57;;;;;;;65.95;42.45;;;12.60;99.90;;;;;;2603089;54;20938;31
2022/10/17 05:56:36;;;;;;;44.65;34.85;;;13.10;99.90;;;;;;2603285;54;20022;31
2022/10/17 05:59:14;;;;;;;37.45;29.63;;;13.00;99.90;;;;;;2603498;54;20022;31
2022/10/17 06:01:56;;;;;;;37.77;28.83;;;13.20;99.90;;;;;;2622120;46;20848;31
2022/10/17 06:04:30;;;;;;;40.13;28.70;;;13.50;99.90;;;;;;2603223;54;21003;31
2022/10/17 06:07:07;;;;;;;;;;;13.60;99.90;;;;;;2603568;54;21064;31
2022/10/17 06:09:42;;;;;;;31.33;24.58;;;13.80;99.90;;;;;;2603427;54;19966;31
2022/10/17 06:12:17;;;;;;;34.30;27.50;;;13.90;99.90;;;;;;2621798;46;20769;31
2022/10/17 06:14:56;;;;;;;;;;;14.00;99.90;;;;;;2603345;54;20238;31
2022/10/17 06:17:33;;;;;;;39.20;26.65;;;13.80;99.90;;;;;;2603189;54;20795;31
2022/10/17 06:20:10;;;;;;;35.08;28.00;;;13.80;99.90;;;;;;2603142;54;20026;31
2022/10/17 06:22:44;;;;;;;35.50;26.40;;;13.80;99.90;;;;;;2603153;54;20803;31
2022/10/17 06:25:28;;;;;;;31.65;26.25;;;14.00;99.90;;;;;;2603177;54;20026;31
2022/10/17 06:28:03;;;;;;;33.70;25.88;;;14.20;99.90;;;;;;2603362;54;20153;31
2022/10/17 06:30:40;;;;;;;31.20;24.60;;;14.50;99.90;;;;;;2603082;54;20926;31
2022/10/17 06:33:16;;;;;;;29.90;24.07;;;14.80;99.90;;;;;;2621817;46;20322;31
2022/10/17 06:35:53;;;;;;;32.22;25.25;;;15.10;99.90;;;;;;2603023;54;20033;31
2022/10/17 06:38:30;;;;;;;29.65;24.35;;;15.40;99.90;;;;;;2603134;54;20026;31
2022/10/17 06:41:08;;;;;;;35.83;25.73;;;15.80;99.90;;;;;;2603033;54;20104;31
2022/10/17 06:43:45;;;;;;;30.35;23.90;;;16.20;99.90;;;;;;2603031;54;20861;31
2022/10/17 06:46:49;;;;;;;33.60;24.50;;;16.60;99.90;;;;;;2603302;54;20026;31
2022/10/17 06:49:24;;;;;;;32.63;24.20;;;17.00;99.90;;;;;;2603091;54;20063;31
2022/10/17 06:52:16;;;;;;;28.90;23.50;;;17.40;99.90;;;;;;2621434;46;20072;31
2022/10/17 06:55:23;;;;;;;28.10;22.90;;;17.60;99.90;;;;;;2602971;54;20926;31
2022/10/17 06:58:21;;;;;;;31.83;24.65;;;18.00;99.90;;;;;;2602605;54;20815;31
2022/10/17 07:01:14;;;;;;;30.95;22.92;;;18.30;99.90;;;;;;2603089;54;20027;31
2022/10/17 07:03:53;;;;;;;33.63;23.87;;;18.50;99.90;;;;;;2603148;54;20033;31
2022/10/17 07:06:28;;;;;;;30.63;23.95;;;18.70;99.90;;;;;;2621378;46;20030;31
2022/10/17 07:09:08;;;;;;;35.30;24.70;;;18.90;99.90;;;;;;2603156;54;20045;31
2022/10/17 07:11:44;;;;;;;29.95;24.10;;;18.90;99.90;;;;;;2602861;54;20042;31
2022/10/17 07:14:30;;;;;;;31.75;23.17;;;19.10;99.90;;;;;;2603079;54;20049;31
2022/10/17 07:17:07;;;;;;;32.60;23.98;;;19.20;99.90;;;;;;2603162;54;20026;31
2022/10/17 07:19:44;;;;;;;;;;;19.20;99.90;;;;;;2603228;54;20026;31
2022/10/17 07:22:20;;;;;;;28.45;23.52;;;19.50;99.90;;;;;;2603011;54;20789;31
2022/10/17 07:24:59;;;;;;;26.45;21.95;;;19.60;99.90;;;;;;2602896;54;20881;31
2022/10/17 07:27:39;;;;;;;30.63;23.27;;;19.80;99.90;;;;;;2603030;54;20805;31
2022/10/17 07:30:14;;;;;;;28.00;22.15;;;19.90;99.90;;;;;;2603086;54;21220;31
2022/10/17 07:33:00;;;;;;;25.40;20.55;;;20.00;99.90;;;;;;2602969;54;20033;31
2022/10/17 07:35:39;;;;;;;25.80;21.45;;;20.30;99.90;;;;;;2602742;54;20033;31
2022/10/17 07:38:15;;;;;;;27.38;23.88;;;20.40;99.90;;;;;;2602873;54;20120;31
2022/10/17 07:40:56;;;;;;;28.55;22.42;;;20.60;99.90;;;;;;2604242;47;20023;31
2022/10/17 07:43:31;;;;;;;32.20;22.60;;;20.60;99.90;;;;;;2602767;54;20031;31
2022/10/17 07:46:07;;;;;;;30.55;20.90;;;20.70;99.90;;;;;;2602921;54;20833;31
2022/10/17 07:48:43;;;;;;;30.42;23.05;;;21.00;99.90;;;;;;2602909;54;20026;31
2022/10/17 07:51:21;;;;;;;27.40;20.60;;;21.20;99.90;;;;;;2621429;47;20054;31
2022/10/17 07:53:57;;;;;;;26.73;19.48;;;21.30;99.90;;;;;;2621468;47;20116;31
2022/10/17 07:56:32;;;;;;;25.40;19.40;;;21.40;99.90;;;;;;2602597;54;20037;31
2022/10/17 07:59:07;;;;;;;24.00;18.97;;;21.80;99.90;;;;;;2621263;47;20093;31
2022/10/17 08:01:42;;;;;;;;;;;21.70;99.90;;;;;;2602825;54;20052;31
2022/10/17 08:04:17;;;;;;;26.20;19.73;;;21.80;99.90;;;;;;2621434;47;20679;31
2022/10/17 08:06:54;;;;;;;24.13;18.55;;;21.70;99.90;;;;;;2602699;54;20243;31
2022/10/17 08:09:44;;;;;;;25.00;19.98;;;21.70;99.90;;;;;;2622121;47;19934;31
2022/10/17 08:12:19;;;;;;;25.15;19.58;;;21.70;99.90;;;;;;2603837;54;20027;31
2022/10/17 08:14:54;;;;;;;28.20;21.00;;;21.60;99.90;;;;;;2603400;54;20033;31
2022/10/17 08:17:29;;;;;;;24.47;19.13;;;21.30;99.90;;;;;;2603502;54;20082;31
2022/10/17 08:20:04;;;;;;;28.23;19.52;;;21.80;99.90;;;;;;2603535;54;19935;31
2022/10/17 08:22:42;;;;;;;25.60;21.03;;;21.90;99.90;;;;;;2622182;46;20034;31
2022/10/17 08:25:17;;;;;;;25.92;19.92;;;22.00;99.90;;;;;;2603575;54;20149;31
2022/10/17 08:27:52;;;;;;;22.13;19.75;;;21.90;99.90;;;;;;2603543;54;20033;31
2022/10/17 08:30:29;;;;;;;26.80;19.87;;;22.00;99.90;;;;;;2603629;54;20030;31
2022/10/17 08:33:03;;;;;;;23.02;19.48;;;22.20;99.90;;;;;;2603584;54;20926;31
2022/10/17 08:35:38;;;;;;;25.15;21.00;;;22.40;99.90;;;;;;2603555;54;20033;31
2022/10/17 08:38:17;;;;;;;22.85;18.80;;;22.80;99.90;;;;;;2622082;46;20033;31
2022/10/17 08:40:55;;;;;;;26.42;22.58;;;22.90;99.90;;;;;;2621923;46;20076;31
2022/10/17 08:43:43;;;;;;;25.30;18.77;;;22.90;99.90;;;;;;2603702;54;20026;31
2022/10/17 08:46:19;;;;;;;25.80;19.85;;;23.00;99.90;;;;;;2603829;54;20027;31
2022/10/17 08:48:54;;;;;;;24.38;19.40;;;23.00;99.90;;;;;;2603595;54;20038;31
2022/10/17 08:51:31;;;;;;;21.10;18.50;;;23.00;99.90;;;;;;2603509;54;20832;31
2022/10/17 08:54:14;;;;;;;26.00;20.52;;;23.20;99.90;;;;;;2603541;54;21215;31
2022/10/17 08:56:51;;;;;;;25.38;19.67;;;23.20;99.90;;;;;;2603872;54;20022;31
2022/10/17 08:59:29;;;;;;;26.55;20.05;;;23.40;99.90;;;;;;2603304;54;20034;31
2022/10/17 09:02:03;;;;;;;24.93;19.37;;;23.40;99.90;;;;;;2603671;54;20141;31
2022/10/17 09:04:47;;;;;;;22.35;19.15;;;23.60;99.90;;;;;;2603401;54;20887;31
2022/10/17 09:07:24;;;;;;;20.65;18.17;;;23.60;99.90;;;;;;2603315;54;20034;31
2022/10/17 09:10:06;;;;;;;20.00;16.80;;;23.70;99.90;;;;;;2603556;54;20113;31
2022/10/17 09:12:49;;;;;;;23.85;19.02;;;23.80;99.90;;;;;;2603800;54;20049;31
2022/10/17 09:15:37;;;;;;;19.60;17.50;;;23.90;99.90;;;;;;2622027;46;20073;31
2022/10/17 09:18:13;;;;;;;23.73;20.17;;;24.00;99.90;;;;;;2603529;54;20054;31
2022/10/17 09:20:53;;;;;;;21.40;19.05;;;24.00;99.90;;;;;;2603239;54;20030;31
2022/10/17 09:23:31;;;;;;;23.33;17.92;;;24.10;99.90;;;;;;2603605;54;20030;31
2022/10/17 09:26:09;;;;;;;25.05;18.85;;;24.10;99.90;;;;;;2622133;46;20079;31
2022/10/17 09:28:44;;;;;;;20.80;17.65;;;24.20;99.90;;;;;;2603752;54;20022;31
2022/10/17 09:31:22;;;;;;;21.67;18.25;;;24.40;99.90;;;;;;2622167;46;20048;31
2022/10/17 09:33:57;;;;;;;23.20;18.30;;;24.70;99.90;;;;;;2603681;54;20022;31
2022/10/17 09:36:32;;;;;;;26.92;21.27;;;24.70;99.90;;;;;;2603383;54;20030;31
2022/10/17 09:39:08;;;;;;;23.30;17.98;;;24.70;99.90;;;;;;2603423;54;20030;31
2022/10/17 09:41:46;;;;;;;23.40;18.40;;;24.60;99.90;;;;;;2603397;54;20035;31
2022/10/17 09:44:21;;;;;;;18.65;16.00;;;24.80;99.90;;;;;;2603713;54;20030;31
2022/10/17 09:46:58;;;;;;;;;;;24.90;99.90;;;;;;2603688;54;20053;31
2022/10/17 09:49:34;;;;;;;22.80;16.17;;;24.90;99.90;;;;;;2603481;54;19946;31
2022/10/17 09:52:12;;;;;;;22.00;17.63;;;25.00;99.90;;;;;;2603482;54;20898;31
2022/10/17 09:54:48;;;;;;;23.75;17.40;;;25.00;99.90;;;;;;2622091;46;20026;31
2022/10/17 09:57:25;;;;;;;19.95;16.02;;;25.10;99.90;;;;;;2603458;54;20161;31
2022/10/17 10:00:01;;;;;;;22.15;15.60;;;25.10;99.90;;;;;;2603262;54;20113;31
2022/10/17 10:02:39;;;;;;;18.45;16.55;;;25.10;99.90;;;;;;2603598;54;20030;31
2022/10/17 10:05:17;;;;;;;17.77;15.20;;;25.10;99.90;;;;;;2603363;54;20938;31
2022/10/17 10:08:03;;;;;;;17.20;14.70;;;25.00;99.90;;;;;;2621975;46;20037;31
2022/10/17 10:10:38;;;;;;;17.50;15.50;;;24.90;99.90;;;;;;2603330;54;20981;31
2022/10/17 10:13:22;;;;;;;19.17;14.57;;;24.80;99.90;;;;;;2603264;54;20022;31
2022/10/17 10:15:56;;;;;;;18.00;15.65;;;24.90;99.90;;;;;;2621951;46;20172;31
2022/10/17 10:18:32;;;;;;;19.33;15.65;;;24.90;99.90;;;;;;2603437;54;20032;31
2022/10/17 10:21:09;;;;;;;17.42;14.25;;;24.90;99.90;;;;;;2603188;54;20031;31
2022/10/17 10:23:44;;;;;;;16.50;14.15;;;24.90;99.90;;;;;;2603400;54;20061;31
2022/10/17 10:26:24;;;;;;;16.10;14.50;;;25.00;99.90;;;;;;2603423;54;20885;31
2022/10/17 10:29:03;;;;;;;16.67;14.70;;;24.90;99.90;;;;;;2603477;54;20254;31
2022/10/17 10:31:41;;;;;;;18.73;14.88;;;24.80;99.90;;;;;;2603606;54;20912;31
2022/10/17 10:34:18;;;;;;;15.65;13.70;;;24.80;99.90;;;;;;2603319;54;20053;31
2022/10/17 10:36:55;;;;;;;20.23;14.73;;;24.80;99.90;;;;;;2603170;54;25049;31
2022/10/17 10:39:38;;;;;;;17.63;14.93;;;24.90;99.90;;;;;;2621355;46;20026;31
2022/10/17 10:42:22;;;;;;;17.80;14.20;;;24.90;99.90;;;;;;2603387;54;20974;31
2022/10/17 10:45:00;;;;;;;16.20;13.20;;;24.90;99.90;;;;;;2603199;54;20783;31
2022/10/17 10:47:34;;;;;;;16.90;13.93;;;24.90;99.90;;;;;;2621990;46;20042;31
2022/10/17 10:50:17;;;;;;;18.80;13.05;;;24.90;99.90;;;;;;2603015;54;19941;31
2022/10/17 10:52:55;;;;;;;14.50;12.32;;;24.90;99.90;;;;;;2603353;54;20821;31
2022/10/17 10:55:30;;;;;;;14.05;12.10;;;24.90;99.90;;;;;;2603235;54;20027;31
2022/10/17 10:58:08;;;;;;;16.73;11.18;;;24.80;99.90;;;;;;2603333;54;20026;31
2022/10/17 11:00:45;;;;;;;20.48;11.10;;;24.80;99.90;;;;;;2603324;54;19945;31
2022/10/17 11:03:21;;;;;;;17.10;11.65;;;24.80;99.90;;;;;;2603029;54;20050;31
2022/10/17 11:05:57;;;;;;;;;;;24.80;99.90;;;;;;2603375;54;20030;31
2022/10/17 11:08:46;;;;;;;15.32;11.75;;;24.80;99.90;;;;;;2621542;46;19934;31
2022/10/17 11:11:22;;;;;;;18.23;11.90;;;24.80;99.90;;;;;;2603288;54;20089;31
2022/10/17 11:14:05;;;;;;;14.07;12.63;;;24.80;99.90;;;;;;2603005;54;20031;31
2022/10/17 11:16:48;;;;;;;14.82;11.75;;;24.60;99.90;;;;;;2621210;47;20824;31
2022/10/17 11:19:27;;;;;;;18.67;12.35;;;24.60;99.90;;;;;;2621841;47;20026;31
2022/10/17 11:22:07;;;;;;;14.47;11.53;;;24.50;99.90;;;;;;2603194;54;20905;31
2022/10/17 11:24:44;;;;;;;17.60;11.35;;;24.50;99.90;;;;;;2621312;47;20255;31
2022/10/17 11:27:17;;;;;;;14.95;10.05;;;24.50;99.90;;;;;;2603253;54;20053;31
2022/10/17 11:29:52;;;;;;;14.98;12.10;;;24.60;99.90;;;;;;2603030;54;20831;31
2022/10/17 11:32:32;;;;;;;14.38;10.90;;;24.60;99.90;;;;;;2603117;54;20042;31
2022/10/17 11:35:10;;;;;;;12.45;10.85;;;24.60;99.90;;;;;;2603053;54;20089;31
2022/10/17 11:37:48;;;;;;;17.40;10.45;;;24.60;99.90;;;;;;2602921;54;20107;31
2022/10/17 11:40:26;;;;;;;15.50;11.70;;;24.60;99.90;;;;;;2603196;54;20030;31
2022/10/17 11:43:02;;;;;;;11.88;10.15;;;24.60;99.90;;;;;;2603025;54;20030;31
2022/10/17 11:45:37;;;;;;;15.52;10.98;;;24.60;99.90;;;;;;2603723;54;20092;31
2022/10/17 11:48:17;;;;;;;16.60;11.95;;;24.50;99.90;;;;;;2621931;46;20085;31
2022/10/17 11:50:53;;;;;;;15.13;11.03;;;24.60;99.90;;;;;;2603895;54;20022;31
2022/10/17 11:53:50;;;;;;;17.67;10.77;;;24.60;99.90;;;;;;2603870;54;20026;31
2022/10/17 11:56:28;;;;;;;14.93;10.88;;;24.50;99.90;;;;;;2603696;54;20112;31
2022/10/17 11:59:09;;;;;;;13.88;10.73;;;24.60;99.90;;;;;;2603945;54;20881;31
2022/10/17 12:01:46;;;;;;;15.02;10.80;;;24.50;99.90;;;;;;2603881;54;21004;31
2022/10/17 12:04:36;;;;;;;16.77;11.30;;;24.50;99.90;;;;;;2603900;54;20033;31
2022/10/17 12:09:44;;;;;;;15.32;10.30;;;24.40;99.90;;;;;;2622624;46;20026;31
2022/10/17 12:12:26;;;;;;;13.05;10.70;;;24.40;99.90;;;;;;2622623;46;20933;31
2022/10/17 12:15:30;;;;;;;16.10;11.45;;;24.40;99.90;;;;;;2603564;54;20023;31
2022/10/17 12:18:05;;;;;;;12.05;10.35;;;24.40;99.90;;;;;;2603697;54;20119;31
2022/10/17 12:20:42;;;;;;;12.10;10.30;;;24.40;99.90;;;;;;2603793;54;20093;31
2022/10/17 12:23:24;;;;;;;12.30;10.57;;;24.40;99.90;;;;;;2603699;54;20297;31
2022/10/17 12:26:00;;;;;;;15.90;10.20;;;24.40;99.90;;;;;;2603966;54;20026;31
2022/10/17 12:28:43;;;;;;;14.73;10.60;;;24.40;99.90;;;;;;2603820;54;20932;31
2022/10/17 12:31:24;;;;;;;11.32;9.25;;;24.40;99.90;;;;;;2603724;54;20030;31
2022/10/17 12:34:06;;;;;;;15.90;10.50;;;24.40;99.90;;;;;;2621797;46;20892;31
2022/10/17 12:36:45;;;;;;;10.63;9.43;;;24.40;99.90;;;;;;2621952;46;21007;31
2022/10/17 12:39:44;;;;;;;11.93;9.35;;;24.40;99.90;;;;;;2603811;54;20037;31
2022/10/17 12:42:33;;;;;;;11.30;9.50;;;24.50;99.90;;;;;;2603771;54;20027;31
2022/10/17 12:45:45;;;;;;;14.05;8.80;;;24.50;99.90;;;;;;2603627;54;20097;31
2022/10/17 12:48:51;;;;;;;11.00;8.68;;;24.60;99.90;;;;;;2619604;46;20027;31
2022/10/17 12:51:26;;;;;;;9.98;8.32;;;24.60;99.90;;;;;;2603639;54;20026;31
2022/10/17 12:54:16;;;;;;;11.95;8.70;;;24.60;99.90;;;;;;2603574;54;20085;31
2022/10/17 12:56:51;;;;;;;12.27;7.85;;;24.80;99.90;;;;;;2621866;46;20057;31
2022/10/17 12:59:27;;;;;;;12.97;8.10;;;24.70;99.90;;;;;;2603811;54;19942;31
2022/10/17 13:02:03;;;;;;;12.15;8.07;;;24.70;99.90;;;;;;2603807;54;20893;31
2022/10/17 13:04:38;;;;;;;14.50;8.90;;;24.70;99.90;;;;;;2622131;46;20034;31
2022/10/17 13:07:15;;;;;;;13.27;8.77;;;24.70;99.90;;;;;;2603624;54;20078;31
2022/10/17 13:09:52;;;;;;;12.93;8.70;;;24.70;99.90;;;;;;2603524;54;20034;31
2022/10/17 13:12:27;;;;;;;11.10;8.70;;;24.70;99.90;;;;;;2603798;54;20030;31
2022/10/17 13:15:02;;;;;;;12.03;8.03;;;24.70;99.90;;;;;;2603546;54;20026;31
2022/10/17 13:17:36;;;;;;;13.20;8.70;;;24.70;99.90;;;;;;2764926;31;20264;31
2022/10/17 13:20:24;;;;;;;11.00;9.07;;;24.70;99.90;;;;;;2603480;54;20052;31
2022/10/17 13:23:04;;;;;;;9.73;7.78;;;24.70;99.90;;;;;;2603399;54;20783;31
2022/10/17 13:25:42;;;;;;;11.55;9.00;;;24.70;99.90;;;;;;2603660;54;20030;31
2022/10/17 13:28:16;;;;;;;11.40;7.47;;;24.60;99.90;;;;;;2603459;54;20093;31
2022/10/17 13:30:50;;;;;;;10.35;8.93;;;24.70;99.90;;;;;;2603695;54;20874;31
2022/10/17 13:33:34;;;;;;;10.52;9.20;;;24.80;99.90;;;;;;2603549;54;20109;31
2022/10/17 13:36:10;;;;;;;11.15;9.35;;;24.70;99.90;;;;;;2603558;54;20029;31
2022/10/17 13:38:45;;;;;;;9.40;8.40;;;24.70;99.90;;;;;;2621956;46;20901;31
2022/10/17 13:41:25;;;;;;;10.50;9.40;;;24.70;99.90;;;;;;2603271;54;19989;31
2022/10/17 13:44:15;;;;;;;12.40;9.40;;;24.60;99.90;;;;;;2702235;39;20987;31